Time;durP1;ratioP1;P1;durP2;ratioP2;P2;SDS_P1;SDS_P2;PMS_P1;PMS_P2;Temp;Humidity;BMP_temperature;BMP_pressure;BME280_temperature;BME280_humidity;BME280_pressure;Samples;Min_cycle;Max_cycle;Signal;HPM_P1;HPM_P2
2021/12/14 00:00:41;;;;;;;0.10;0.10;;;7.80;99.90;;;;;;5087243;28;20063;-79
2021/12/14 00:03:09;;;;;;;0.10;0.10;;;7.80;99.90;;;;;;5070613;28;20182;-79
2021/12/14 00:05:36;;;;;;;0.00;0.00;;;7.80;99.90;;;;;;5070755;28;20041;-79
2021/12/14 00:08:06;;;;;;;0.10;0.10;;;7.80;99.90;;;;;;5070151;28;20429;-80
2021/12/14 00:13:20;;;;;;;0.10;0.10;;;7.80;99.90;;;;;;5070775;28;20167;-79
2021/12/14 00:15:49;;;;;;;0.10;0.10;;;7.80;99.90;;;;;;5086737;28;20045;-79
2021/12/14 00:18:16;;;;;;;0.10;0.10;;;7.80;99.90;;;;;;5070320;28;20387;-78
2021/12/14 00:20:58;;;;;;;0.00;0.00;;;7.80;99.90;;;;;;5086721;28;20071;-79
2021/12/14 00:26:16;;;;;;;0.10;0.10;;;7.80;99.90;;;;;;5087034;28;20064;-79
2021/12/14 00:28:43;;;;;;;0.08;0.08;;;7.80;99.90;;;;;;5053598;28;20125;-79
2021/12/14 00:31:15;;;;;;;0.17;0.15;;;7.80;99.90;;;;;;5086415;28;20037;-79
2021/12/14 00:33:44;;;;;;;0.03;0.03;;;7.80;99.90;;;;;;5086829;28;20084;-79
2021/12/14 00:36:11;;;;;;;0.10;0.10;;;7.80;99.90;;;;;;5086222;28;20045;-79
2021/12/14 00:38:41;;;;;;;0.00;0.00;;;7.80;99.90;;;;;;5086177;28;20501;-79
2021/12/14 00:41:13;;;;;;;0.10;0.10;;;7.80;99.90;;;;;;5085932;28;20041;-79
2021/12/14 00:43:41;;;;;;;0.10;0.10;;;7.80;99.90;;;;;;5086307;28;20044;-79
2021/12/14 00:46:09;;;;;;;0.20;0.13;;;7.80;99.90;;;;;;5069261;28;20037;-79
2021/12/14 00:48:38;;;;;;;0.05;0.05;;;7.80;99.90;;;;;;5069795;28;20069;-79
2021/12/14 00:51:06;;;;;;;0.10;0.10;;;7.80;99.90;;;;;;5085963;28;20062;-79
2021/12/14 00:53:33;;;;;;;0.10;0.10;;;7.80;99.90;;;;;;5069564;28;20048;-79
2021/12/14 00:56:04;;;;;;;0.10;0.10;;;7.80;99.90;;;;;;5069078;28;20060;-79
2021/12/14 00:58:31;;;;;;;0.00;0.00;;;7.90;99.90;;;;;;5086392;28;20045;-78
2021/12/14 01:01:27;;;;;;;0.10;0.10;;;7.80;99.90;;;;;;5068924;28;20099;-79
2021/12/14 01:03:59;;;;;;;0.00;0.00;;;7.80;99.90;;;;;;5067030;28;20056;-79
2021/12/14 01:06:31;;;;;;;0.10;0.10;;;7.80;99.90;;;;;;5085865;28;20418;-79
2021/12/14 01:09:01;;;;;;;0.10;0.10;;;7.80;99.90;;;;;;5052494;28;20045;-79
2021/12/14 01:11:35;;;;;;;0.00;0.00;;;7.80;99.90;;;;;;5069727;28;20119;-79
2021/12/14 01:14:29;;;;;;;0.00;0.00;;;7.80;99.90;;;;;;5085340;28;20047;-79
2021/12/14 01:17:12;;;;;;;0.00;0.00;;;7.80;99.90;;;;;;5068781;28;20394;-78
2021/12/14 01:19:46;;;;;;;0.03;0.03;;;7.80;99.90;;;;;;5085576;28;20409;-79
2021/12/14 01:25:13;;;;;;;0.00;0.00;;;7.80;99.90;;;;;;5085421;28;20190;-79
2021/12/14 01:28:01;;;;;;;0.10;0.10;;;7.80;99.90;;;;;;5085735;28;20036;-79
2021/12/14 01:30:37;;;;;;;0.00;0.00;;;7.80;99.90;;;;;;5085453;28;20391;-79
2021/12/14 01:33:12;;;;;;;0.10;0.10;;;7.80;99.90;;;;;;5068540;28;20048;-78
2021/12/14 01:35:42;;;;;;;0.10;0.10;;;7.80;99.90;;;;;;5085573;28;20041;-78
2021/12/14 01:38:31;;;;;;;0.00;0.00;;;7.80;99.90;;;;;;5085203;28;20413;-79
2021/12/14 01:41:10;;;;;;;0.10;0.10;;;7.80;99.90;;;;;;5085520;28;20048;-79
2021/12/14 01:43:44;;;;;;;0.00;0.00;;;7.80;99.90;;;;;;5085408;28;20041;-79
2021/12/14 01:46:19;;;;;;;0.10;0.10;;;7.70;99.90;;;;;;5068654;28;20048;-79
2021/12/14 01:48:48;;;;;;;0.00;0.00;;;7.70;99.90;;;;;;5085529;28;20120;-78
2021/12/14 01:51:16;;;;;;;0.10;0.10;;;7.80;99.90;;;;;;5068580;28;20867;-79
2021/12/14 01:53:46;;;;;;;0.10;0.10;;;7.80;99.90;;;;;;5085293;28;20465;-79
2021/12/14 01:56:15;;;;;;;0.10;0.10;;;7.70;99.90;;;;;;5084716;28;20417;-78
2021/12/14 01:58:49;;;;;;;0.00;0.00;;;7.70;99.90;;;;;;5085438;28;20522;-79
2021/12/14 02:01:20;;;;;;;0.00;0.00;;;7.70;99.90;;;;;;5084850;28;20459;-80
2021/12/14 02:04:00;;;;;;;0.10;0.10;;;7.70;99.90;;;;;;5085281;28;20048;-79
2021/12/14 02:06:33;;;;;;;0.00;0.00;;;7.70;99.90;;;;;;5084950;28;20619;-79
2021/12/14 02:09:14;;;;;;;0.00;0.00;;;7.70;99.90;;;;;;5084971;28;20521;-79
2021/12/14 02:11:49;;;;;;;0.10;0.10;;;7.70;99.90;;;;;;5085186;28;20080;-79
2021/12/14 02:14:17;;;;;;;0.20;0.20;;;7.70;99.90;;;;;;5068341;28;20044;-79
2021/12/14 02:16:51;;;;;;;0.10;0.10;;;7.70;99.90;;;;;;5052170;28;20053;-78
2021/12/14 02:19:18;;;;;;;0.00;0.00;;;7.80;99.90;;;;;;5084585;28;20076;-79
2021/12/14 02:21:48;;;;;;;0.10;0.10;;;7.80;99.90;;;;;;5085683;28;20037;-79
2021/12/14 02:24:21;;;;;;;0.00;0.00;;;7.70;99.90;;;;;;5084919;28;20041;-79
2021/12/14 02:26:50;;;;;;;0.10;0.10;;;7.80;99.90;;;;;;5053135;28;20041;-79
2021/12/14 02:29:30;;;;;;;0.03;0.03;;;7.80;99.90;;;;;;5052080;28;20122;-78
2021/12/14 02:32:11;;;;;;;0.03;0.03;;;7.70;99.90;;;;;;5085286;28;20045;-79
2021/12/14 02:34:45;;;;;;;0.00;0.00;;;7.70;99.90;;;;;;5072591;28;20037;-79
2021/12/14 02:37:16;;;;;;;0.10;0.10;;;7.80;99.90;;;;;;5088410;28;20038;-79
2021/12/14 02:42:19;;;;;;;0.00;0.00;;;7.70;99.90;;;;;;5089002;28;20033;-79
2021/12/14 02:44:46;;;;;;;;;;;7.70;99.90;;;;;;5092409;28;20036;-79
2021/12/14 02:47:16;;;;;;;0.10;0.10;;;7.70;99.90;;;;;;5082017;28;20299;-78
2021/12/14 02:49:44;;;;;;;0.20;0.15;;;7.70;99.90;;;;;;5103764;28;20045;-79
2021/12/14 02:52:24;;;;;;;0.00;0.00;;;7.70;99.90;;;;;;5075071;28;20076;-78
2021/12/14 02:54:55;;;;;;;0.10;0.10;;;7.70;99.90;;;;;;5088520;28;20132;-79
2021/12/14 02:57:25;;;;;;;0.00;0.00;;;7.70;99.90;;;;;;5088120;28;20131;-79
2021/12/14 02:59:53;;;;;;;0.10;0.10;;;7.70;99.90;;;;;;5088457;28;20041;-79
2021/12/14 03:02:32;;;;;;;0.00;0.00;;;7.70;99.90;;;;;;5071647;28;20037;-79
2021/12/14 03:05:04;;;;;;;0.00;0.00;;;7.60;99.90;;;;;;5088047;28;20040;-80
2021/12/14 03:07:39;;;;;;;0.00;0.00;;;7.60;99.90;;;;;;5087696;28;20037;-79
2021/12/14 03:10:21;;;;;;;0.00;0.00;;;7.60;99.90;;;;;;5088119;28;20044;-79
2021/12/14 03:12:53;;;;;;;0.00;0.00;;;7.60;99.90;;;;;;5088101;28;20041;-78
2021/12/14 03:15:47;;;;;;;0.10;0.10;;;7.60;99.90;;;;;;5088092;28;20084;-79
2021/12/14 03:18:20;;;;;;;0.10;0.10;;;7.60;99.90;;;;;;5088055;28;20044;-78
2021/12/14 03:20:58;;;;;;;0.00;0.00;;;7.70;99.90;;;;;;5087932;28;20049;-78
2021/12/14 03:23:35;;;;;;;0.20;0.20;;;7.60;99.90;;;;;;5087636;28;20043;-79
2021/12/14 03:26:06;;;;;;;0.32;0.30;;;7.60;99.90;;;;;;5087974;28;20045;-79
2021/12/14 03:28:34;;;;;;;0.00;0.00;;;7.60;99.90;;;;;;5087261;28;20087;-79
2021/12/14 03:31:23;;;;;;;0.00;0.00;;;7.60;99.90;;;;;;5071388;28;20067;-79
2021/12/14 03:34:05;;;;;;;0.10;0.10;;;7.70;99.90;;;;;;5087710;28;20049;-79
2021/12/14 03:36:41;;;;;;;0.00;0.00;;;7.60;99.90;;;;;;5087818;28;20049;-79
2021/12/14 03:39:13;;;;;;;0.08;0.08;;;7.60;99.90;;;;;;5087776;28;20048;-79
2021/12/14 03:41:50;;;;;;;0.00;0.00;;;7.60;99.90;;;;;;5087366;28;20041;-79
2021/12/14 03:44:25;;;;;;;0.10;0.10;;;7.60;99.90;;;;;;5087181;28;20040;-79
2021/12/14 03:46:56;;;;;;;0.00;0.00;;;7.50;99.90;;;;;;5087408;28;20037;-78
2021/12/14 03:49:29;;;;;;;0.10;0.10;;;7.60;99.90;;;;;;5087276;28;20392;-79
2021/12/14 03:51:56;;;;;;;0.08;0.08;;;7.60;99.90;;;;;;5070907;28;20056;-79
2021/12/14 03:54:23;;;;;;;0.10;0.10;;;7.60;99.90;;;;;;5070553;28;20037;-79
2021/12/14 03:56:51;;;;;;;0.25;0.10;;;7.60;99.90;;;;;;5070526;28;20056;-78
2021/12/14 03:59:18;;;;;;;0.10;0.10;;;7.60;99.90;;;;;;5087383;28;20037;-78
2021/12/14 04:01:48;;;;;;;0.03;0.03;;;7.60;99.90;;;;;;5086922;28;20036;-79
2021/12/14 04:04:25;;;;;;;0.00;0.00;;;7.60;99.90;;;;;;5087185;28;20091;-79
2021/12/14 04:06:56;;;;;;;0.10;0.10;;;7.60;99.90;;;;;;5087098;28;20162;-79
2021/12/14 04:09:28;;;;;;;0.05;0.05;;;7.60;99.90;;;;;;5087619;28;20053;-79
2021/12/14 04:11:55;;;;;;;0.10;0.10;;;7.60;99.90;;;;;;5086897;28;20551;-79
2021/12/14 04:14:23;;;;;;;0.00;0.00;;;7.60;99.90;;;;;;5086815;28;20041;-79
2021/12/14 04:16:52;;;;;;;0.00;0.00;;;7.60;99.90;;;;;;5086746;28;20472;-79
2021/12/14 04:19:22;;;;;;;0.10;0.10;;;7.60;99.90;;;;;;5086513;28;20036;-78
2021/12/14 04:21:50;;;;;;;0.20;0.20;;;7.60;99.90;;;;;;5086363;28;20566;-78
2021/12/14 04:24:28;;;;;;;0.00;0.00;;;7.60;99.90;;;;;;5070294;28;20037;-79
2021/12/14 04:26:56;;;;;;;0.10;0.10;;;7.60;99.90;;;;;;5086493;28;20090;-79
2021/12/14 04:29:23;;;;;;;0.10;0.10;;;7.60;99.90;;;;;;5053481;28;20067;-79
2021/12/14 04:31:51;;;;;;;0.10;0.10;;;7.60;99.90;;;;;;5053352;28;20064;-79
2021/12/14 04:34:20;;;;;;;0.10;0.10;;;7.60;99.90;;;;;;5086631;28;20565;-79
2021/12/14 04:36:51;;;;;;;0.63;0.20;;;7.60;99.90;;;;;;5053495;28;20095;-78
2021/12/14 04:53:22;;;;;;;0.45;0.45;;;7.60;99.90;;;;;;5071965;28;20102;-79
2021/12/14 04:55:53;;;;;;;0.00;0.00;;;7.60;99.90;;;;;;5085278;28;20076;-79
2021/12/14 04:58:34;;;;;;;0.10;0.10;;;7.60;99.90;;;;;;5085875;28;20048;-79
2021/12/14 05:01:05;;;;;;;0.00;0.00;;;7.50;99.90;;;;;;5085809;28;20122;-79
2021/12/14 05:03:37;;;;;;;0.00;0.00;;;7.60;99.90;;;;;;5085900;28;20044;-79
2021/12/14 05:06:17;;;;;;;0.00;0.00;;;7.60;99.90;;;;;;5085837;28;20037;-79
2021/12/14 05:09:22;;;;;;;0.10;0.10;;;7.60;99.90;;;;;;5085889;28;20033;-78
2021/12/14 05:12:00;;;;;;;0.10;0.10;;;7.60;99.90;;;;;;5068992;28;20497;-79
2021/12/14 05:14:29;;;;;;;0.10;0.10;;;7.60;99.90;;;;;;5085883;28;20130;-79
2021/12/14 05:16:59;;;;;;;0.20;0.20;;;7.60;99.90;;;;;;5069244;28;20037;-79
2021/12/14 05:19:28;;;;;;;0.47;0.30;;;7.60;99.90;;;;;;5068909;28;20033;-79
2021/12/14 05:22:02;;;;;;;0.05;0.05;;;7.60;99.90;;;;;;5052409;28;20044;-79
2021/12/14 05:24:29;;;;;;;1.08;0.30;;;7.70;99.90;;;;;;5085648;28;20647;-79
2021/12/14 05:27:00;;;;;;;0.10;0.10;;;8.20;99.90;;;;;;5068712;28;20474;-79
2021/12/14 05:29:28;;;;;;;0.00;0.00;;;7.60;99.90;;;;;;5085809;28;20073;-79
2021/12/14 05:31:58;;;;;;;0.20;0.20;;;7.60;99.90;;;;;;5052076;28;20037;-79
2021/12/14 05:34:26;;;;;;;0.10;0.10;;;7.60;99.90;;;;;;5085661;28;20123;-78
2021/12/14 05:36:54;;;;;;;0.03;0.03;;;7.60;99.90;;;;;;5084965;28;20032;-79
2021/12/14 05:39:44;;;;;;;0.00;0.00;;;7.60;99.90;;;;;;5085210;28;20486;-79
2021/12/14 05:45:01;;;;;;;0.00;0.00;;;7.60;99.90;;;;;;5085249;28;20045;-78
2021/12/14 05:47:28;;;;;;;0.03;0.03;;;7.60;99.90;;;;;;5085808;28;20041;-79
2021/12/14 05:49:55;;;;;;;0.10;0.10;;;7.50;99.90;;;;;;5084940;28;20539;-77
2021/12/14 05:52:25;;;;;;;0.08;0.08;;;7.50;99.90;;;;;;5085364;28;20071;-79
2021/12/14 05:54:55;;;;;;;0.00;0.00;;;7.50;99.90;;;;;;5084793;28;20045;-79
2021/12/14 05:57:25;;;;;;;1.08;0.38;;;7.50;99.90;;;;;;5085128;28;20119;-79
2021/12/14 05:59:53;;;;;;;0.03;0.03;;;7.90;99.90;;;;;;5084733;28;20568;-79
2021/12/14 06:02:23;;;;;;;0.00;0.00;;;7.50;99.90;;;;;;5052751;28;20041;-79
2021/12/14 06:04:52;;;;;;;0.00;0.00;;;7.50;99.90;;;;;;5068889;28;20078;-78
2021/12/14 06:07:19;;;;;;;0.00;0.00;;;7.80;99.90;;;;;;5068899;28;20036;-78
2021/12/14 06:09:49;;;;;;;0.00;0.00;;;7.50;99.90;;;;;;5088805;28;20041;-79
2021/12/14 06:12:23;;;;;;;0.10;0.10;;;7.50;99.90;;;;;;5089284;28;20409;-79
2021/12/14 06:14:55;;;;;;;0.00;0.00;;;7.50;99.90;;;;;;5088843;28;20072;-79
2021/12/14 06:17:26;;;;;;;0.00;0.00;;;7.50;99.90;;;;;;5089363;28;20044;-79
2021/12/14 06:19:58;;;;;;;0.10;0.10;;;7.50;99.90;;;;;;5088847;28;20149;-79
2021/12/14 06:22:25;;;;;;;0.00;0.00;;;7.50;99.90;;;;;;5089305;28;20048;-79
2021/12/14 06:25:02;;;;;;;0.00;0.00;;;7.50;99.90;;;;;;5089082;28;20075;-79
2021/12/14 06:27:31;;;;;;;0.00;0.00;;;7.50;99.90;;;;;;5089322;28;20037;-79
2021/12/14 06:30:20;;;;;;;0.05;0.05;;;7.50;99.90;;;;;;5055862;28;20386;-79
2021/12/14 06:33:06;;;;;;;0.00;0.00;;;7.60;99.90;;;;;;5089905;28;20064;-79
2021/12/14 06:35:46;;;;;;;0.00;0.00;;;7.50;99.90;;;;;;5072762;28;20048;-78
2021/12/14 06:38:28;;;;;;;0.10;0.10;;;7.50;99.90;;;;;;5089012;28;20056;-79
2021/12/14 06:41:01;;;;;;;0.00;0.00;;;7.50;99.90;;;;;;5088649;28;20045;-79
2021/12/14 06:43:40;;;;;;;0.25;0.25;;;7.50;99.90;;;;;;5088896;28;20068;-79
2021/12/14 06:46:14;;;;;;;0.00;0.00;;;7.50;99.90;;;;;;5088465;28;20413;-79
2021/12/14 06:48:51;;;;;;;0.00;0.00;;;7.50;99.90;;;;;;5088879;28;20120;-78
2021/12/14 06:51:21;;;;;;;0.08;0.08;;;7.50;99.90;;;;;;5088608;28;20045;-78
2021/12/14 06:53:51;;;;;;;0.75;0.45;;;7.50;99.90;;;;;;5088513;28;20110;-79
2021/12/14 06:56:22;;;;;;;0.10;0.10;;;7.50;99.90;;;;;;5073323;28;20452;-79
2021/12/14 06:58:56;;;;;;;0.10;0.10;;;7.40;99.90;;;;;;5092042;28;20041;-79
2021/12/14 07:01:31;;;;;;;0.10;0.10;;;7.50;99.90;;;;;;5082613;28;20498;-79
2021/12/14 07:04:05;;;;;;;0.10;0.10;;;7.50;99.90;;;;;;5087104;28;20037;-79
2021/12/14 07:06:48;;;;;;;0.00;0.00;;;7.50;99.90;;;;;;5090160;28;20048;-79
2021/12/14 07:09:22;;;;;;;0.00;0.00;;;7.50;99.90;;;;;;5088118;28;20086;-80
2021/12/14 07:11:57;;;;;;;0.10;0.10;;;7.50;99.90;;;;;;5086704;28;20076;-79
2021/12/14 07:14:27;;;;;;;0.40;0.40;;;7.50;99.90;;;;;;5070196;28;20154;-79
2021/12/14 07:17:28;;;;;;;0.10;0.10;;;7.50;99.90;;;;;;5086251;28;20567;-79
2021/12/14 07:19:57;;;;;;;0.10;0.10;;;7.50;99.90;;;;;;5079671;28;20048;-79
2021/12/14 07:22:24;;;;;;;0.10;0.10;;;7.50;99.90;;;;;;5096961;28;20036;-79
2021/12/14 07:25:05;;;;;;;0.10;0.10;;;7.50;99.90;;;;;;5104949;28;20074;-80
2021/12/14 07:27:49;;;;;;;0.00;0.00;;;7.50;99.90;;;;;;5099754;28;20043;-80
2021/12/14 07:30:22;;;;;;;0.00;0.00;;;7.60;99.90;;;;;;5094138;28;20045;-80
2021/12/14 07:33:17;;;;;;;0.00;0.00;;;7.50;99.90;;;;;;5080854;28;20048;-80
2021/12/14 07:35:55;;;;;;;0.10;0.10;;;7.60;99.90;;;;;;5084483;28;20052;-79
2021/12/14 07:38:32;;;;;;;0.20;0.20;;;7.60;99.90;;;;;;5100935;28;20550;-80
2021/12/14 07:41:03;;;;;;;0.10;0.10;;;7.60;99.90;;;;;;5105753;28;20508;-80
2021/12/14 07:43:43;;;;;;;0.10;0.10;;;7.50;99.90;;;;;;5094699;28;20498;-79
2021/12/14 07:46:20;;;;;;;0.00;0.00;;;7.50;99.90;;;;;;5082521;28;20036;-79
2021/12/14 07:48:52;;;;;;;0.00;0.00;;;7.50;99.90;;;;;;5095284;28;20468;-80
2021/12/14 07:51:20;;;;;;;0.00;0.00;;;7.60;99.90;;;;;;5102803;28;20100;-79
2021/12/14 07:53:54;;;;;;;0.00;0.00;;;7.60;99.90;;;;;;5071083;28;20045;-79
2021/12/14 07:56:29;;;;;;;0.75;0.28;;;7.60;99.90;;;;;;5067905;28;1086121;-80
2021/12/14 07:58:58;;;;;;;0.20;0.20;;;7.60;99.90;;;;;;5090161;28;20041;-79
2021/12/14 08:01:26;;;;;;;0.05;0.05;;;7.70;99.90;;;;;;5107114;28;20036;-79
2021/12/14 08:04:13;;;;;;;0.10;0.10;;;7.70;99.90;;;;;;5074061;28;20045;-80
2021/12/14 08:06:50;;;;;;;0.10;0.10;;;7.60;99.90;;;;;;5100074;28;20036;-79
2021/12/14 08:09:32;;;;;;;0.00;0.00;;;7.70;99.90;;;;;;5097202;28;20040;-79
2021/12/14 08:12:01;;;;;;;0.10;0.10;;;7.70;99.90;;;;;;5107485;28;20105;-79
2021/12/14 08:14:30;;;;;;;0.10;0.10;;;7.70;99.90;;;;;;5089429;28;20828;-80
2021/12/14 08:17:03;;;;;;;0.10;0.10;;;7.70;99.90;;;;;;5101013;28;20041;-78
2021/12/14 08:19:38;;;;;;;0.52;0.30;;;7.70;99.90;;;;;;5086934;28;20139;-78
2021/12/14 08:22:15;;;;;;;0.10;0.10;;;7.70;99.90;;;;;;5089987;28;20064;-79
2021/12/14 08:24:49;;;;;;;0.25;0.25;;;7.70;99.90;;;;;;5079061;28;20037;-79
2021/12/14 08:27:20;;;;;;;0.10;0.10;;;7.80;99.90;;;;;;5093044;28;20028;-79
2021/12/14 08:30:00;;;;;;;0.00;0.00;;;7.70;99.90;;;;;;5077677;28;20049;-79
2021/12/14 08:32:34;;;;;;;0.22;0.20;;;7.70;99.90;;;;;;5091347;28;20080;-79
2021/12/14 08:35:06;;;;;;;0.10;0.10;;;7.80;99.90;;;;;;5100311;28;20052;-79
2021/12/14 08:37:44;;;;;;;0.00;0.00;;;7.80;99.90;;;;;;5099720;28;20470;-79
2021/12/14 08:40:17;;;;;;;0.10;0.10;;;7.80;99.90;;;;;;5103375;28;20040;-80
2021/12/14 08:42:59;;;;;;;0.17;0.17;;;7.80;99.90;;;;;;5089185;28;20075;-79
2021/12/14 08:45:40;;;;;;;0.00;0.00;;;7.80;99.90;;;;;;5089540;28;20032;-80
2021/12/14 08:48:06;;;;;;;0.10;0.10;;;7.80;99.90;;;;;;5089252;28;20040;-79
2021/12/14 08:50:39;;;;;;;0.10;0.10;;;7.80;99.90;;;;;;5105843;28;20056;-79
2021/12/14 08:53:09;;;;;;;0.10;0.10;;;7.80;99.90;;;;;;5089142;28;20037;-79
2021/12/14 08:55:38;;;;;;;0.10;0.10;;;8.20;99.90;;;;;;5105974;28;20060;-79
2021/12/14 08:58:07;;;;;;;0.00;0.00;;;8.00;99.90;;;;;;5088652;28;20489;-79
2021/12/14 09:00:44;;;;;;;0.08;0.08;;;7.80;99.90;;;;;;5072458;28;20036;-79
2021/12/14 09:03:20;;;;;;;0.00;0.00;;;7.90;99.90;;;;;;5088840;28;20371;-79
2021/12/14 09:05:49;;;;;;;0.00;0.00;;;7.90;99.90;;;;;;5105402;28;20531;-78
2021/12/14 09:08:20;;;;;;;0.00;0.00;;;7.90;99.90;;;;;;5069557;28;20516;-79
2021/12/14 09:10:50;;;;;;;0.00;0.00;;;7.90;99.90;;;;;;5088496;28;20568;-79
2021/12/14 09:13:17;;;;;;;0.10;0.10;;;7.90;99.90;;;;;;5085510;28;20685;-80
2021/12/14 09:16:05;;;;;;;0.13;0.13;;;7.90;99.90;;;;;;5036045;28;20041;-78
2021/12/14 09:18:38;;;;;;;0.00;0.00;;;7.90;99.90;;;;;;5085274;28;20128;-79
2021/12/14 09:21:10;;;;;;;0.10;0.10;;;7.90;99.90;;;;;;5068453;28;20045;-80
2021/12/14 09:23:42;;;;;;;0.00;0.00;;;8.00;99.90;;;;;;5077783;28;20083;-79
2021/12/14 09:26:19;;;;;;;0.00;0.00;;;7.90;99.90;;;;;;5105587;28;20083;-79
2021/12/14 09:28:47;;;;;;;0.10;0.10;;;7.90;99.90;;;;;;5105650;28;20040;-80
2021/12/14 09:31:20;;;;;;;0.10;0.10;;;7.90;99.90;;;;;;5088287;28;20760;-79
2021/12/14 09:33:50;;;;;;;0.00;0.00;;;7.90;99.90;;;;;;5105256;28;20123;-79
2021/12/14 09:36:17;;;;;;;0.00;0.00;;;8.30;99.90;;;;;;5084673;28;20044;-79
2021/12/14 09:39:02;;;;;;;0.10;0.10;;;8.00;99.90;;;;;;5068522;28;20094;-79
2021/12/14 09:41:33;;;;;;;0.20;0.20;;;8.00;99.90;;;;;;5067656;28;20111;-78
2021/12/14 09:44:04;;;;;;;0.10;0.10;;;8.10;99.90;;;;;;5073911;28;20111;-79
2021/12/14 09:46:31;;;;;;;0.10;0.10;;;8.00;99.90;;;;;;5099642;28;20043;-79
2021/12/14 09:49:01;;;;;;;0.22;0.10;;;8.10;99.90;;;;;;5101588;28;20032;-79
2021/12/14 09:51:36;;;;;;;0.00;0.00;;;8.10;99.90;;;;;;5079722;28;20037;-80
2021/12/14 09:54:06;;;;;;;0.00;0.00;;;8.10;99.90;;;;;;5075369;28;20542;-80
2021/12/14 09:56:39;;;;;;;0.10;0.10;;;8.10;99.90;;;;;;5087767;28;20052;-79
2021/12/14 09:59:07;;;;;;;0.10;0.10;;;8.10;99.90;;;;;;5105228;28;20041;-79
2021/12/14 10:01:52;;;;;;;0.00;0.00;;;8.10;99.90;;;;;;5071502;28;20036;-80
2021/12/14 10:04:27;;;;;;;0.00;0.00;;;8.10;99.90;;;;;;5092736;28;20037;-79
2021/12/14 10:06:54;;;;;;;0.10;0.10;;;8.10;99.90;;;;;;5071587;28;20041;-80
2021/12/14 10:09:26;;;;;;;0.10;0.10;;;8.10;99.90;;;;;;5070163;28;20044;-79
2021/12/14 10:12:16;;;;;;;0.30;0.30;;;8.10;99.90;;;;;;5105026;28;20044;-80
2021/12/14 10:14:47;;;;;;;0.03;0.03;;;8.10;99.90;;;;;;5089000;28;20049;-80
2021/12/14 10:17:16;;;;;;;0.08;0.08;;;8.10;99.90;;;;;;5068105;28;20037;-80
2021/12/14 10:19:44;;;;;;;0.10;0.10;;;8.10;99.90;;;;;;5061751;28;20246;-79
2021/12/14 10:22:21;;;;;;;0.00;0.00;;;8.20;99.90;;;;;;5088600;28;20059;-79
2021/12/14 10:24:48;;;;;;;0.63;0.47;;;8.20;99.90;;;;;;5080130;28;20154;-79
2021/12/14 10:27:18;;;;;;;0.00;0.00;;;8.20;99.90;;;;;;5092780;28;20120;-79
2021/12/14 10:29:45;;;;;;;0.00;0.00;;;8.20;99.90;;;;;;5090361;28;20052;-80
2021/12/14 10:32:20;;;;;;;0.10;0.10;;;8.20;99.90;;;;;;5071810;28;20044;-81
2021/12/14 10:34:50;;;;;;;0.00;0.00;;;8.20;99.90;;;;;;5102993;28;20045;-81
2021/12/14 10:37:50;;;;;;;0.10;0.10;;;8.20;99.90;;;;;;5084806;28;20037;-80
2021/12/14 10:43:15;;;;;;;0.00;0.00;;;8.30;99.90;;;;;;5071846;28;20041;-82
2021/12/14 10:46:16;;;;;;;0.00;0.00;;;8.30;99.90;;;;;;5069719;28;20049;-81
2021/12/14 10:48:46;;;;;;;0.05;0.05;;;8.30;99.90;;;;;;5085281;28;20037;-82
2021/12/14 10:51:16;;;;;;;0.00;0.00;;;8.30;99.90;;;;;;5085190;28;20252;-82
2021/12/14 10:53:47;;;;;;;0.08;0.08;;;8.30;99.90;;;;;;5085823;28;20106;-80
2021/12/14 10:56:19;;;;;;;0.10;0.10;;;8.30;99.90;;;;;;5088695;28;20061;-82
2021/12/14 10:58:49;;;;;;;0.03;0.03;;;8.30;99.90;;;;;;5072190;28;20487;-81
2021/12/14 11:01:30;;;;;;;0.35;0.30;;;8.30;99.90;;;;;;5071716;28;20119;-80
2021/12/14 11:04:03;;;;;;;0.10;0.10;;;8.30;99.90;;;;;;5072120;28;20044;-80
2021/12/14 11:06:32;;;;;;;0.00;0.00;;;8.30;99.90;;;;;;5071509;28;20045;-81
2021/12/14 11:11:41;;;;;;;0.03;0.03;;;8.30;99.90;;;;;;5088156;28;20106;-82
2021/12/14 11:14:12;;;;;;;0.00;0.00;;;8.30;99.90;;;;;;5071769;28;20075;-82
2021/12/14 11:19:56;;;;;;;0.00;0.00;;;8.40;99.90;;;;;;5087818;28;20044;-80
2021/12/14 11:22:27;;;;;;;0.10;0.10;;;8.40;99.90;;;;;;5071427;28;20196;-80
2021/12/14 11:25:01;;;;;;;0.00;0.00;;;8.40;99.90;;;;;;5088665;28;20041;-81
2021/12/14 11:27:35;;;;;;;0.00;0.00;;;8.40;99.90;;;;;;5087836;28;20072;-81
2021/12/14 11:30:31;;;;;;;0.00;0.00;;;8.40;99.90;;;;;;5071828;28;20040;-80
2021/12/14 11:33:17;;;;;;;;;;;8.40;99.90;;;;;;5088379;28;20049;-82
2021/12/14 11:35:54;;;;;;;0.08;0.08;;;8.40;99.90;;;;;;5070940;28;19964;-81
2021/12/14 11:38:24;;;;;;;0.00;0.00;;;8.40;99.90;;;;;;5087965;28;20048;-80
2021/12/14 11:40:51;;;;;;;0.20;0.20;;;8.40;99.90;;;;;;5087718;28;20041;-81
2021/12/14 11:43:23;;;;;;;0.00;0.00;;;8.40;99.90;;;;;;5087643;28;20072;-80
2021/12/14 11:45:51;;;;;;;0.03;0.03;;;8.40;99.90;;;;;;5071279;28;20041;-80
2021/12/14 11:48:36;;;;;;;0.00;0.00;;;8.40;99.90;;;;;;5071426;28;20040;-80
2021/12/14 11:51:05;;;;;;;0.20;0.05;;;8.40;99.90;;;;;;5088016;28;20040;-81
2021/12/14 11:53:32;;;;;;;0.00;0.00;;;8.40;99.90;;;;;;5087337;28;20382;-82
2021/12/14 11:56:01;;;;;;;0.00;0.00;;;8.40;99.90;;;;;;5070854;28;20056;-80
2021/12/14 11:58:36;;;;;;;0.03;0.03;;;8.40;99.90;;;;;;5087410;28;20472;-80
2021/12/14 12:01:16;;;;;;;0.10;0.10;;;8.40;99.90;;;;;;5087667;28;20047;-81
2021/12/14 12:03:58;;;;;;;0.00;0.00;;;8.40;99.90;;;;;;5070617;28;20063;-80
2021/12/14 12:09:28;;;;;;;0.00;0.00;;;8.40;99.90;;;;;;5087587;28;20051;-82
2021/12/14 12:12:04;;;;;;;0.10;0.10;;;8.40;99.90;;;;;;5087301;28;20072;-82
2021/12/14 12:14:40;;;;;;;0.10;0.10;;;8.40;99.90;;;;;;5087139;28;20041;-82
2021/12/14 12:17:26;;;;;;;0.10;0.10;;;8.40;99.90;;;;;;5087186;28;20049;-80
2021/12/14 12:20:17;;;;;;;0.00;0.00;;;8.40;99.90;;;;;;5087120;28;20521;-80
2021/12/14 12:22:56;;;;;;;0.00;0.00;;;8.40;99.90;;;;;;5086772;28;20037;-82
2021/12/14 12:25:34;;;;;;;0.00;0.00;;;8.40;99.90;;;;;;5087006;28;20041;-82
2021/12/14 12:28:12;;;;;;;0.10;0.10;;;8.40;99.90;;;;;;5087201;28;20040;-80
2021/12/14 12:30:49;;;;;;;0.20;0.20;;;8.50;99.90;;;;;;5086579;28;20378;-82
2021/12/14 12:33:30;;;;;;;0.00;0.00;;;8.40;99.90;;;;;;5087010;28;20102;-80
2021/12/14 12:35:57;;;;;;;0.10;0.10;;;8.40;99.90;;;;;;5070370;28;20140;-82
2021/12/14 12:38:26;;;;;;;0.00;0.00;;;8.40;99.90;;;;;;5086852;28;20545;-81
2021/12/14 12:41:04;;;;;;;0.00;0.00;;;8.80;99.90;;;;;;5086601;28;20118;-80
2021/12/14 12:43:51;;;;;;;0.00;0.00;;;8.40;99.90;;;;;;5086161;28;20664;-82
2021/12/14 12:46:28;;;;;;;0.00;0.00;;;8.40;99.90;;;;;;5086512;28;20041;-82
2021/12/14 12:49:20;;;;;;;0.00;0.00;;;8.50;99.90;;;;;;5086452;28;20048;-81
2021/12/14 12:51:50;;;;;;;0.10;0.10;;;8.50;99.90;;;;;;5086107;28;20163;-80
2021/12/14 12:54:19;;;;;;;0.28;0.28;;;8.50;99.90;;;;;;5086411;28;20049;-82
2021/12/14 12:57:11;;;;;;;0.00;0.00;;;8.60;99.90;;;;;;5069246;28;20057;-80
2021/12/14 12:59:49;;;;;;;0.00;0.00;;;8.50;99.90;;;;;;5067493;28;20045;-80
2021/12/14 13:02:35;;;;;;;0.00;0.00;;;8.50;99.90;;;;;;5069698;28;20033;-82
2021/12/14 13:05:14;;;;;;;;;;;8.50;99.90;;;;;;5070963;28;20047;-82
2021/12/14 13:08:08;;;;;;;0.00;0.00;;;8.50;99.90;;;;;;5069541;28;20386;-80
2021/12/14 13:10:47;;;;;;;0.00;0.00;;;8.50;99.90;;;;;;5063836;28;20418;-82
2021/12/14 13:13:28;;;;;;;0.00;0.00;;;8.40;99.90;;;;;;5069589;28;20505;-80
2021/12/14 13:16:09;;;;;;;0.00;0.00;;;8.50;99.90;;;;;;5085570;28;20041;-81
2021/12/14 13:18:53;;;;;;;0.30;0.30;;;8.50;99.90;;;;;;5085863;28;20105;-80
2021/12/14 13:21:49;;;;;;;0.05;0.05;;;8.50;99.90;;;;;;5085952;28;20486;-82
2021/12/14 13:24:19;;;;;;;0.10;0.10;;;8.50;99.90;;;;;;5086183;28;20076;-80
2021/12/14 13:27:06;;;;;;;0.10;0.10;;;8.40;99.90;;;;;;5085735;28;20037;-82
2021/12/14 13:29:35;;;;;;;0.00;0.00;;;8.40;99.90;;;;;;5085362;28;20044;-80
2021/12/14 13:32:39;;;;;;;0.28;0.28;;;8.50;99.90;;;;;;5085598;28;20098;-81
2021/12/14 13:35:05;;;;;;;0.00;0.00;;;8.40;99.90;;;;;;5085789;28;20061;-82
2021/12/14 13:37:54;;;;;;;0.10;0.10;;;8.50;99.90;;;;;;5085916;28;20091;-82
2021/12/14 13:40:27;;;;;;;0.00;0.00;;;8.50;99.90;;;;;;5085803;28;20494;-82
2021/12/14 13:43:22;;;;;;;0.38;0.38;;;8.50;99.90;;;;;;5085446;28;20049;-82
2021/12/14 13:45:58;;;;;;;0.00;0.00;;;8.40;99.90;;;;;;5085078;28;20063;-82
2021/12/14 13:48:32;;;;;;;0.00;0.00;;;8.40;99.90;;;;;;5068935;28;20048;-82
2021/12/14 13:51:07;;;;;;;0.00;0.00;;;8.40;99.90;;;;;;5068911;28;20482;-82
2021/12/14 13:53:34;;;;;;;0.20;0.20;;;8.50;99.90;;;;;;5085543;28;20048;-80
2021/12/14 13:56:05;;;;;;;0.00;0.00;;;8.50;99.90;;;;;;5068810;28;20088;-80
2021/12/14 13:58:34;;;;;;;0.03;0.03;;;8.50;99.90;;;;;;5085559;28;20041;-81
2021/12/14 14:01:06;;;;;;;0.05;0.05;;;8.50;99.90;;;;;;5068537;28;20063;-80
2021/12/14 14:03:37;;;;;;;0.00;0.00;;;8.50;99.90;;;;;;5085877;28;20041;-81
2021/12/14 14:06:07;;;;;;;0.08;0.08;;;8.60;99.90;;;;;;5085605;28;20045;-81
2021/12/14 14:08:41;;;;;;;0.10;0.10;;;8.50;99.90;;;;;;5085515;28;20052;-80
2021/12/14 14:11:20;;;;;;;0.00;0.00;;;8.50;99.90;;;;;;5085812;28;20047;-81
2021/12/14 14:13:49;;;;;;;0.10;0.10;;;8.50;99.90;;;;;;5085251;28;20041;-81